^^
Saratoga-Weather Station Historical Data
Daily Summary for February 23, 2020 Units:  English    Metric   Both
Daily Weekly Monthly Yearly Custom
  High: Low: Average:
Temperature: 74.8 °F 58.3 °F 66.4 °F
Dew Point: 59.2 °F 43.9 °F 53.6 °F
Humidity: 85% 43% 65%
Wind Speed: 10.1mph 0mph 2.2mph
Wind Gust: 15mph - -
Wind- - SW
Pressure: 29.8 in 29.6 in -
Precipitation: 0.06 in    
Historical Graphs
 
 
Tabular Data for February 23, 2020
Time Temperature Dew Point Pressure Wind Wind Speed Wind Gust Humidity Rainfall Rate (Hourly) solar
00:04 68.2 °F 44.8 °F 29.7 in SW 0.9 mph 3 mph 43% 0 in 0 W/m2
00:09 68 °F 45.3 °F 29.7 in WNW 2 mph 4 mph 44% 0 in 0 W/m2
00:15 67.8 °F 45.1 °F 29.7 in Calm   2 mph 44% 0 in 0 W/m2
00:20 67.8 °F 45.1 °F 29.7 in West 0.9 mph 4 mph 44% 0 in 0 W/m2
00:25 67.8 °F 45.1 °F 29.7 in Calm   3 mph 44% 0 in 0 W/m2
00:30 67.6 °F 45 °F 29.7 in West 2 mph 3 mph 44% 0 in 0 W/m2
00:35 67.5 °F 44.8 °F 29.7 in Calm   6 mph 44% 0 in 0 W/m2
00:40 67.3 °F 45.1 °F 29.7 in West 0.9 mph 3 mph 45% 0 in 0 W/m2
00:45 66.9 °F 45.5 °F 29.7 in West 2 mph 3 mph 46% 0 in 0 W/m2
00:50 66.9 °F 45.5 °F 29.7 in Calm   3 mph 46% 0 in 0 W/m2
00:55 66.7 °F 44.8 °F 29.7 in West 4 mph 4 mph 45% 0 in 0 W/m2
01:00 66.7 °F 44.8 °F 29.7 in NNW 0.9 mph 3 mph 45% 0 in 0 W/m2
01:05 66.7 °F 44.8 °F 29.7 in WNW 2.9 mph 3 mph 45% 0 in 0 W/m2
01:10 66.7 °F 45.3 °F 29.7 in WNW 2.9 mph 5 mph 46% 0 in 0 W/m2
01:15 66.6 °F 45.1 °F 29.7 in West 4 mph 7 mph 46% 0 in 0 W/m2
01:20 66.6 °F 45.1 °F 29.7 in WSW 2.9 mph 5 mph 46% 0 in 0 W/m2
01:25 66.4 °F 45 °F 29.7 in West 2 mph 6 mph 46% 0 in 0 W/m2
01:30 66.2 °F 45.3 °F 29.7 in NW 0.9 mph 5 mph 47% 0 in 0 W/m2
01:35 66 °F 45.1 °F 29.7 in WNW 2.9 mph 7 mph 47% 0 in 0 W/m2
01:40 65.8 °F 45 °F 29.7 in NW 2.9 mph 6 mph 47% 0 in 0 W/m2
01:45 65.7 °F 45 °F 29.7 in NW 2 mph 3 mph 47% 0 in 0 W/m2
01:50 65.5 °F 45.3 °F 29.7 in Calm     48% 0 in 0 W/m2
01:55 65.1 °F 45.5 °F 29.7 in SW 2 mph 2 mph 49% 0 in 0 W/m2
02:00 64.8 °F 45.7 °F 29.7 in Calm   2 mph 50% 0 in 0 W/m2
02:05 64.2 °F 44.6 °F 29.7 in West 2 mph 3 mph 49% 0 in 0 W/m2
02:10 64 °F 45.5 °F 29.7 in Calm   1 mph 51% 0 in 0 W/m2
02:15 63.9 °F 45.3 °F 29.7 in Calm   3 mph 51% 0 in 0 W/m2
02:20 63.5 °F 45.5 °F 29.7 in NNW 0.9 mph 1 mph 52% 0 in 0 W/m2
02:25 63 °F 45.5 °F 29.7 in Calm   2 mph 53% 0 in 0 W/m2
02:30 62.8 °F 45.3 °F 29.7 in Calm   1 mph 53% 0 in 0 W/m2
02:35 62.4 °F 45.5 °F 29.7 in NNW 0.9 mph 2 mph 54% 0 in 0 W/m2
02:40 62.1 °F 45.1 °F 29.7 in WSW 0.9 mph 1 mph 54% 0 in 0 W/m2
02:45 62.2 °F 44.4 °F 29.7 in WSW 0.9 mph 4 mph 52% 0 in 0 W/m2
02:50 62.6 °F 44.8 °F 29.7 in NW 2 mph 3 mph 52% 0 in 0 W/m2
02:55 63 °F 44.6 °F 29.7 in Calm   3 mph 51% 0 in 0 W/m2
03:00 63 °F 44.1 °F 29.7 in ENE 2 mph 4 mph 50% 0 in 0 W/m2
03:05 63 °F 44.1 °F 29.7 in WSW 4.9 mph 7 mph 50% 0 in 0 W/m2
03:10 63.1 °F 44.2 °F 29.7 in WNW 2 mph 8 mph 50% 0 in 0 W/m2
03:15 63 °F 44.1 °F 29.7 in WNW 2 mph 7 mph 50% 0 in 0 W/m2
03:20 63 °F 44.1 °F 29.7 in WSW 2.9 mph 7 mph 50% 0 in 0 W/m2
03:25 63 °F 44.1 °F 29.7 in West 2.9 mph 6 mph 50% 0 in 0 W/m2
03:30 62.8 °F 43.9 °F 29.7 in West 2 mph 7 mph 50% 0 in 0 W/m2
03:35 62.8 °F 44.4 °F 29.7 in WSW 2.9 mph 4 mph 51% 0 in 0 W/m2
03:40 62.4 °F 44.1 °F 29.7 in WNW 2.9 mph 4 mph 51% 0 in 0 W/m2
03:45 62.2 °F 43.9 °F 29.7 in WNW 0.9 mph 6 mph 51% 0 in 0 W/m2
03:50 62.1 °F 44.2 °F 29.7 in SSW 2 mph 6 mph 52% 0 in 0 W/m2
03:55 61.9 °F 44.1 °F 29.7 in West 2 mph 6 mph 52% 0 in 0 W/m2
04:00 61.7 °F 44.4 °F 29.7 in West 6.9 mph 8 mph 53% 0 in 0 W/m2
04:05 61.5 °F 44.2 °F 29.7 in SE 2.9 mph 4 mph 53% 0 in 0 W/m2
04:10 61.5 °F 44.2 °F 29.7 in WNW 4 mph 7 mph 53% 0 in 0 W/m2
04:15 61.3 °F 44.1 °F 29.7 in WSW 4 mph 11 mph 53% 0 in 0 W/m2
04:20 61.2 °F 44.4 °F 29.7 in WNW 0.9 mph 3 mph 54% 0 in 0 W/m2
04:25 61 °F 44.8 °F 29.7 in WNW 2 mph 4 mph 55% 0 in 0 W/m2
04:30 60.8 °F 44.6 °F 29.7 in WNW 0.9 mph 4 mph 55% 0 in 0 W/m2
04:35 60.6 °F 45.3 °F 29.7 in West 0.9 mph 6 mph 57% 0 in 0 W/m2
04:40 60.4 °F 45.7 °F 29.7 in West 2 mph 7 mph 58% 0 in 0 W/m2
04:45 60.3 °F 45.9 °F 29.7 in WSW 4.9 mph 6 mph 59% 0 in 0 W/m2
04:50 60.3 °F 46.8 °F 29.7 in NW 2.9 mph 10 mph 61% 0 in 0 W/m2
04:55 60.1 °F 46.9 °F 29.7 in NW 2.9 mph 7 mph 62% 0 in 0 W/m2
05:00 60.1 °F 47.8 °F 29.7 in West 0.9 mph 9 mph 64% 0 in 0 W/m2
05:05 59.9 °F 48.6 °F 29.7 in WNW 2.9 mph 5 mph 66% 0 in 0 W/m2
05:10 59.9 °F 48.9 °F 29.7 in West 4 mph 7 mph 67% 0 in 0 W/m2
05:15 59.7 °F 49.1 °F 29.7 in WSW 2.9 mph 6 mph 68% 0 in 0 W/m2
05:20 59.5 °F 49.3 °F 29.7 in WNW 0.9 mph 5 mph 69% 0 in 0 W/m2
05:25 59.5 °F 49.3 °F 29.7 in SW 4 mph 4 mph 69% 0 in 0 W/m2
05:30 59.4 °F 50 °F 29.7 in WNW 2 mph 7 mph 71% 0 in 0 W/m2
05:35 59.4 °F 50.4 °F 29.7 in North 2.9 mph 3 mph 72% 0 in 0 W/m2
05:40 59.4 °F 50.7 °F 29.7 in SW 2 mph 6 mph 73% 0 in 0 W/m2
05:45 59.4 °F 51.1 °F 29.7 in West 2 mph 4 mph 74% 0 in 0 W/m2
05:50 59.4 °F 51.8 °F 29.7 in SW 2.9 mph 4 mph 76% 0 in 0 W/m2
05:55 59.4 °F 51.8 °F 29.7 in WNW 4 mph 4 mph 76% 0 in 0 W/m2
06:00 59.4 °F 52.2 °F 29.7 in SSW 2 mph 6 mph 77% 0 in 0 W/m2
06:05 59.5 °F 52.3 °F 29.7 in NNW 2 mph 3 mph 77% 0 in 0 W/m2
06:10 59.5 °F 52 °F 29.7 in North 0.9 mph 3 mph 76% 0 in 0 W/m2
06:15 59.4 °F 51.1 °F 29.7 in Calm   1 mph 74% 0 in 0 W/m2
06:20 59.2 °F 50.9 °F 29.7 in Calm   1 mph 74% 0 in 0 W/m2
06:25 58.8 °F 50.9 °F 29.7 in NE 2.9 mph 3 mph 75% 0 in 0 W/m2
06:30 58.6 °F 51.4 °F 29.7 in Calm   3 mph 77% 0 in 0 W/m2
06:35 58.5 °F 51.6 °F 29.7 in Calm   1 mph 78% 0 in 0 W/m2
06:40 58.5 °F 52 °F 29.7 in East 0.9 mph 3 mph 79% 0 in 0 W/m2
06:45 58.5 °F 52.3 °F 29.7 in Calm   1 mph 80% 0 in 0 W/m2
06:50 58.5 °F 52.3 °F 29.7 in East 0.9 mph 3 mph 80% 0 in 0 W/m2
06:55 58.5 °F 52.7 °F 29.7 in Calm   1 mph 81% 0 in 0 W/m2
07:00 58.3 °F 52.5 °F 29.7 in Calm     81% 0 in 0 W/m2
07:05 58.5 °F 53.1 °F 29.7 in ENE 0.9 mph 4 mph 82% 0 in 0 W/m2
07:10 58.5 °F 53.1 °F 29.7 in ENE 2 mph 2 mph 82% 0 in 0 W/m2
07:15 58.6 °F 53.4 °F 29.7 in NE 0.9 mph 4 mph 83% 0 in 0 W/m2
07:20 58.6 °F 53.4 °F 29.7 in ENE 2.9 mph 3 mph 83% 0 in 0 W/m2
07:25 58.6 °F 53.4 °F 29.7 in SE 0.9 mph 3 mph 83% 0 in 0 W/m2
07:30 58.8 °F 54 °F 29.7 in NNW 0.9 mph 3 mph 84% 0 in 5 W/m2
07:35 59.2 °F 54.7 °F 29.7 in WNW 2.9 mph 4 mph 85% 0 in 7 W/m2
07:40 59.4 °F 54.9 °F 29.7 in West 0.9 mph 7 mph 85% 0 in 11 W/m2
07:45 59.5 °F 55 °F 29.7 in West 0.9 mph 7 mph 85% 0 in 14 W/m2
07:50 59.7 °F 55.2 °F 29.7 in NW 4.9 mph 7 mph 85% 0 in 18 W/m2
07:55 59.9 °F 55.4 °F 29.7 in NNW 2 mph 5 mph 85% 0 in 19 W/m2
08:00 60.1 °F 55.6 °F 29.7 in NW 2.9 mph 7 mph 85% 0 in 21 W/m2
08:05 60.1 °F 55.6 °F 29.7 in NW 2 mph 2 mph 85% 0 in 26 W/m2
08:10 60.1 °F 55.6 °F 29.7 in Calm   3 mph 85% 0 in 30 W/m2
08:15 60.1 °F 55.6 °F 29.7 in Calm   4 mph 85% 0 in 37 W/m2
08:20 60.1 °F 55.6 °F 29.7 in East 2 mph 3 mph 85% 0 in 37 W/m2
08:26 60.1 °F 55.6 °F 29.7 in ENE 0.9 mph 3 mph 85% 0 in 46 W/m2
08:31 60.1 °F 55.6 °F 29.7 in NW 2 mph 3 mph 85% 0 in 67 W/m2
08:36 60.3 °F 55.8 °F 29.7 in West 0.9 mph 2 mph 85% 0 in 81 W/m2
08:41 60.4 °F 55.9 °F 29.7 in Calm   1 mph 85% 0 in 77 W/m2
08:46 60.6 °F 56.1 °F 29.7 in NE 2.9 mph 4 mph 85% 0 in 67 W/m2
08:51 61 °F 56.1 °F 29.7 in West 0.9 mph 3 mph 84% 0 in 67 W/m2
08:56 61 °F 56.1 °F 29.7 in ESE 0.9 mph 4 mph 84% 0 in 81 W/m2
09:01 61.2 °F 56.3 °F 29.7 in Calm   4 mph 84% 0 in 79 W/m2
09:06 61.3 °F 56.5 °F 29.8 in Calm     84% 0 in 77 W/m2
09:11 61.5 °F 56.3 °F 29.7 in Calm   2 mph 83% 0 in 84 W/m2
09:16 61.5 °F 56.3 °F 29.7 in Calm   1 mph 83% 0 in 98 W/m2
09:21 61.9 °F 56.7 °F 29.7 in NW 2 mph 5 mph 83% 0 in 211 W/m2
09:26 62.1 °F 56.5 °F 29.8 in NW 2 mph 5 mph 82% 0 in 72 W/m2
09:31 62.1 °F 56.5 °F 29.8 in WNW 2.9 mph 4 mph 82% 0 in 79 W/m2
09:36 61.9 °F 56.3 °F 29.8 in West 2.9 mph 7 mph 82% 0 in 90 W/m2
09:41 62.1 °F 56.5 °F 29.8 in Calm   3 mph 82% 0 in 197 W/m2
09:46 62.4 °F 56.8 °F 29.7 in NW 0.9 mph 5 mph 82% 0 in 265 W/m2
09:51 62.6 °F 56.7 °F 29.8 in NW 0.9 mph 4 mph 81% 0 in 279 W/m2
09:56 63 °F 57 °F 29.8 in Calm   3 mph 81% 0 in 290 W/m2
10:01 63.3 °F 57 °F 29.7 in West 2.9 mph 9 mph 80% 0 in 97 W/m2
10:06 63.3 °F 56.7 °F 29.7 in WNW 2.9 mph 5 mph 79% 0 in 107 W/m2
10:11 63.3 °F 56.7 °F 29.7 in West 0.9 mph 9 mph 79% 0 in 132 W/m2
10:16 63.3 °F 56.7 °F 29.8 in Calm   3 mph 79% 0 in 102 W/m2
10:21 63.3 °F 56.7 °F 29.7 in West 0.9 mph 5 mph 79% 0 in 102 W/m2
10:26 63.5 °F 56.8 °F 29.8 in Calm   1 mph 79% 0 in 183 W/m2
10:31 63.9 °F 57.2 °F 29.7 in North 0.9 mph 5 mph 79% 0 in 415 W/m2
10:36 64.6 °F 57.6 °F 29.7 in WNW 4 mph 7 mph 78% 0 in 399 W/m2
10:41 65.3 °F 57.2 °F 29.7 in West 8.1 mph 8 mph 75% 0 in 397 W/m2
10:46 65.7 °F 57.2 °F 29.8 in WNW 2.9 mph 8 mph 74% 0 in 394 W/m2
10:51 65.8 °F 57 °F 29.7 in West 2.9 mph 3 mph 73% 0 in 401 W/m2
10:56 66 °F 57.6 °F 29.7 in Calm   4 mph 74% 0 in 148 W/m2
11:01 66.4 °F 57.4 °F 29.7 in North 0.9 mph 4 mph 73% 0 in 213 W/m2
11:06 66.6 °F 57.2 °F 29.7 in SW 4.9 mph 6 mph 72% 0 in 471 W/m2
11:11 66.7 °F 57 °F 29.7 in SSE 2.9 mph 9 mph 71% 0 in 469 W/m2
11:16 66.7 °F 57 °F 29.7 in West 6.9 mph 7 mph 71% 0 in 309 W/m2
11:21 66.7 °F 57.4 °F 29.7 in West 2.9 mph 9 mph 72% 0 in 531 W/m2
11:26 67.3 °F 57.6 °F 29.7 in WNW 2 mph 3 mph 71% 0 in 510 W/m2
11:31 67.6 °F 57.6 °F 29.7 in West 2.9 mph 6 mph 70% 0 in 538 W/m2
11:36 67.8 °F 57.7 °F 29.7 in WNW 4 mph 8 mph 70% 0 in 301 W/m2
11:41 68.2 °F 58.1 °F 29.7 in West 10.1 mph 10 mph 70% 0 in 374 W/m2
11:46 68 °F 58.3 °F 29.7 in WNW 4.9 mph 6 mph 71% 0 in 350 W/m2
11:51 68.2 °F 58.5 °F 29.7 in West 10 mph 10 mph 71% 0 in 550 W/m2
11:56 68.5 °F 58.3 °F 29.7 in West 6 mph 9 mph 70% 0 in 606 W/m2
12:01 68.5 °F 58.3 °F 29.7 in West 6 mph 8 mph 70% 0 in 622 W/m2
12:06 68.7 °F 58.1 °F 29.7 in WNW 10.1 mph 10 mph 69% 0 in 343 W/m2
12:11 68.9 °F 57.9 °F 29.7 in WNW 2.9 mph 6 mph 68% 0 in 285 W/m2
12:16 68.9 °F 57.9 °F 29.7 in SW 2 mph 15 mph 68% 0 in 311 W/m2
12:21 68.9 °F 57.9 °F 29.7 in NW 4 mph 7 mph 68% 0 in 248 W/m2
12:26 68.7 °F 57.7 °F 29.7 in NW 2 mph 15 mph 68% 0 in 162 W/m2
12:31 68.9 °F 57.9 °F 29.7 in NW 2 mph 4 mph 68% 0 in 211 W/m2
12:36 68.9 °F 58.3 °F 29.7 in NNW 0.9 mph 2 mph 69% 0 in 204 W/m2
12:41 69.3 °F 58.3 °F 29.7 in West 6 mph 8 mph 68% 0 in 163 W/m2
12:46 69.1 °F 58.5 °F 29.7 in West 0.9 mph 7 mph 69% 0 in 195 W/m2
12:51 69.1 °F 58.5 °F 29.7 in North 2.9 mph 8 mph 69% 0 in 213 W/m2
12:56 69.3 °F 58.6 °F 29.7 in NNW 2 mph 4 mph 69% 0 in 292 W/m2
13:01 69.8 °F 58.8 °F 29.7 in NE 2 mph 8 mph 68% 0 in 766 W/m2
13:06 70.5 °F 59 °F 29.7 in Calm   5 mph 67% 0 in 795 W/m2
13:11 71.1 °F 59.2 °F 29.7 in NNW 0.9 mph 5 mph 66% 0 in 761 W/m2
13:16 71.2 °F 58.5 °F 29.7 in SSE 0.9 mph 3 mph 64% 0 in 687 W/m2
13:21 71.8 °F 58.5 °F 29.7 in NW 0.9 mph 2 mph 63% 0 in 684 W/m2
13:26 72.7 °F 58.8 °F 29.7 in North 4 mph 8 mph 62% 0 in 272 W/m2
13:31 72.3 °F 57.7 °F 29.7 in West 8.1 mph 10 mph 60% 0 in 272 W/m2
13:36 72 °F 57.4 °F 29.7 in WSW 2 mph 4 mph 60% 0 in 285 W/m2
13:41 71.8 °F 57.6 °F 29.7 in ESE 2 mph 10 mph 61% 0 in 721 W/m2
13:46 72.3 °F 58.1 °F 29.7 in ENE 2.9 mph 7 mph 61% 0 in 659 W/m2
13:51 72.5 °F 57.7 °F 29.7 in WNW 6.9 mph 9 mph 60% 0 in 142 W/m2
13:56 71.8 °F 57.6 °F 29.7 in WNW 0.9 mph 4 mph 61% 0 in 174 W/m2
14:01 71.6 °F 57.9 °F 29.7 in NE 4 mph 9 mph 62% 0 in 171 W/m2
14:06 72 °F 58.3 °F 29.7 in NE 2.9 mph 3 mph 62% 0 in 731 W/m2
14:11 72.7 °F 58.5 °F 29.7 in NW 2.9 mph 8 mph 61% 0 in 700 W/m2
14:16 73 °F 57.9 °F 29.7 in NW 2.9 mph 4 mph 59% 0 in 111 W/m2
14:21 73 °F 57.9 °F 29.7 in NW 4 mph 5 mph 59% 0 in 113 W/m2
14:26 72.7 °F 57.6 °F 29.7 in SW 0.9 mph 3 mph 59% 0 in 169 W/m2
14:31 72.5 °F 57.4 °F 29.7 in East 0.9 mph 4 mph 59% 0 in 142 W/m2
14:36 72.1 °F 57 °F 29.7 in Calm   2 mph 59% 0 in 146 W/m2
14:41 72.3 °F 57.2 °F 29.7 in NW 2 mph 8 mph 59% 0 in 153 W/m2
14:47 72.3 °F 57.2 °F 29.7 in West 4 mph 8 mph 59% 0 in 193 W/m2
14:52 72.9 °F 56.3 °F 29.7 in SSE 4 mph 6 mph 56% 0 in 687 W/m2
14:57 73.9 °F 56.3 °F 29.7 in South 0.9 mph 10 mph 54% 0 in 719 W/m2
15:02 74.1 °F 56.5 °F 29.7 in WNW 8.1 mph 8 mph 54% 0 in 295 W/m2
15:07 73.8 °F 56.1 °F 29.7 in West 2.9 mph 12 mph 54% 0 in 174 W/m2
15:12 73.9 °F 56.8 °F 29.7 in West 6.9 mph 14 mph 55% 0 in 700 W/m2
15:17 73.9 °F 56.8 °F 29.7 in West 4 mph 6 mph 55% 0 in 192 W/m2
15:22 74.1 °F 56.5 °F 29.7 in NW 2 mph 14 mph 54% 0 in 209 W/m2
15:27 74.1 °F 55.9 °F 29.7 in NW 2 mph 6 mph 53% 0 in 123 W/m2
15:32 73.8 °F 56.1 °F 29.7 in NW 2 mph 7 mph 54% 0 in 169 W/m2
15:37 73.8 °F 56.7 °F 29.7 in NW 4.9 mph 5 mph 55% 0 in 258 W/m2
15:42 73.8 °F 56.7 °F 29.7 in WNW 6.9 mph 10 mph 55% 0 in 107 W/m2
15:47 73.2 °F 56.1 °F 29.7 in West 2 mph 8 mph 55% 0 in 109 W/m2
15:52 73 °F 56.5 °F 29.7 in NW 4.9 mph 10 mph 56% 0 in 183 W/m2
15:57 72.9 °F 56.3 °F 29.7 in West 2.9 mph 6 mph 56% 0 in 612 W/m2
16:02 73.6 °F 56.8 °F 29.7 in NW 2 mph 8 mph 56% 0 in 615 W/m2
16:07 73.9 °F 56.8 °F 29.7 in WNW 2.9 mph 8 mph 55% 0 in 550 W/m2
16:12 74.5 °F 56.7 °F 29.7 in West 0.9 mph 6 mph 54% 0 in 529 W/m2
16:17 74.7 °F 56.5 °F 29.7 in NNW 6 mph 10 mph 53% 0 in 478 W/m2
16:22 74.5 °F 56.7 °F 29.7 in WSW 4.9 mph 7 mph 54% 0 in 468 W/m2
16:27 74.7 °F 56.5 °F 29.7 in NW 4.9 mph 7 mph 53% 0 in 441 W/m2
16:32 74.7 °F 56.5 °F 29.7 in NNW 2.9 mph 6 mph 53% 0 in 392 W/m2
16:37 74.7 °F 56.5 °F 29.7 in WNW 4 mph 6 mph 53% 0 in 385 W/m2
16:42 74.8 °F 56.5 °F 29.7 in South 2 mph 4 mph 53% 0 in 427 W/m2
16:47 74.8 °F 56.5 °F 29.7 in NE 2.9 mph 5 mph 53% 0 in 350 W/m2
16:52 74.7 °F 56.5 °F 29.7 in SE 2 mph 7 mph 53% 0 in 148 W/m2
16:57 74.1 °F 55.9 °F 29.7 in NE 4 mph 4 mph 53% 0 in 98 W/m2
17:02 73.8 °F 56.1 °F 29.7 in NNE 2.9 mph 4 mph 54% 0 in 160 W/m2
17:07 73.8 °F 56.1 °F 29.7 in Calm   3 mph 54% 0 in 141 W/m2
17:12 74.1 °F 55.4 °F 29.7 in North 2 mph 3 mph 52% 0 in 297 W/m2
17:17 74.7 °F 55.9 °F 29.7 in NNE 2 mph 3 mph 52% 0 in 153 W/m2
17:22 74.8 °F 55 °F 29.7 in NNW 4 mph 6 mph 50% 0 in 220 W/m2
17:27 74.7 °F 54.9 °F 29.7 in WNW 4.9 mph 6 mph 50% 0 in 137 W/m2
17:32 74.1 °F 54.9 °F 29.7 in NW 2 mph 3 mph 51% 0 in 88 W/m2
17:37 73.9 °F 54.1 °F 29.7 in NE 2.9 mph 6 mph 50% 0 in 113 W/m2
17:42 73.6 °F 54.3 °F 29.7 in NE 2 mph 5 mph 51% 0 in 135 W/m2
17:47 73.6 °F 54.3 °F 29.7 in NW 0.9 mph 6 mph 51% 0 in 125 W/m2
17:52 73.4 °F 54.7 °F 29.7 in Calm   3 mph 52% 0 in 146 W/m2
17:57 73.4 °F 54.7 °F 29.6 in West 2 mph 4 mph 52% 0 in 130 W/m2
18:02 73.4 °F 54.7 °F 29.6 in NW 2.9 mph 7 mph 52% 0 in 111 W/m2
18:07 73.2 °F 54.5 °F 29.6 in WNW 2.9 mph 5 mph 52% 0 in 98 W/m2
18:12 73 °F 54.9 °F 29.6 in NNW 0.9 mph 7 mph 53% 0 in 79 W/m2
18:17 73 °F 54.3 °F 29.6 in NW 4 mph 4 mph 52% 0 in 70 W/m2
18:22 72.9 °F 54.7 °F 29.6 in WNW 2.9 mph 3 mph 53% 0 in 58 W/m2
18:27 72.7 °F 54.5 °F 29.6 in NW 2 mph 4 mph 53% 0 in 54 W/m2
18:32 72.5 °F 54.3 °F 29.6 in Calm   2 mph 53% 0 in 47 W/m2
18:37 72.1 °F 54.5 °F 29.6 in NNW 4 mph 4 mph 54% 0 in 42 W/m2
18:42 72.1 °F 54.1 °F 29.6 in NW 0.9 mph 3 mph 53% 0 in 40 W/m2
18:47 72 °F 54 °F 29.6 in WNW 0.9 mph 3 mph 53% 0 in 39 W/m2
18:52 71.8 °F 53.8 °F 29.6 in Calm   2 mph 53% 0 in 33 W/m2
18:57 71.8 °F 53.8 °F 29.6 in NNW 0.9 mph 2 mph 53% 0 in 26 W/m2
19:02 71.4 °F 53.4 °F 29.6 in Calm   1 mph 53% 0 in 23 W/m2
19:07 71.2 °F 54.3 °F 29.6 in Calm     55% 0 in 19 W/m2
19:12 70.9 °F 54 °F 29.6 in WNW 0.9 mph 2 mph 55% 0 in 16 W/m2
19:17 70.5 °F 54.1 °F 29.6 in SW 0.9 mph 2 mph 56% 0 in 11 W/m2
19:22 70.2 °F 54.7 °F 29.6 in Calm     58% 0 in 9 W/m2
19:27 69.8 °F 54.3 °F 29.6 in SW 0.9 mph 2 mph 58% 0 in 5 W/m2
19:32 69.3 °F 54.3 °F 29.6 in Calm   1 mph 59% 0 in 0 W/m2
19:37 68.7 °F 54.3 °F 29.6 in Calm   1 mph 60% 0 in 0 W/m2
19:42 68.4 °F 54.9 °F 29.6 in SE 0.9 mph 2 mph 62% 0 in 0 W/m2
19:47 68.4 °F 55.8 °F 29.6 in Calm   1 mph 64% 0 in 0 W/m2
19:52 68.2 °F 55.9 °F 29.6 in NE 0.9 mph 2 mph 65% 0 in 0 W/m2
19:57 68 °F 56.3 °F 29.6 in NE 0.9 mph 2 mph 66% 0 in 0 W/m2
20:03 67.8 °F 56.5 °F 29.6 in Calm   2 mph 67% 0 in 0 W/m2
20:08 67.8 °F 56.5 °F 29.6 in Calm   1 mph 67% 0 in 0 W/m2
20:13 67.3 °F 55.9 °F 29.6 in Calm   2 mph 67% 0 in 0 W/m2
20:18 66.9 °F 55.9 °F 29.6 in Calm   1 mph 68% 0 in 0 W/m2
20:23 66.6 °F 56.1 °F 29.6 in Calm   2 mph 69% 0 in 0 W/m2
20:28 66.4 °F 56.3 °F 29.6 in ENE 0.9 mph 1 mph 70% 0 in 0 W/m2
20:33 66 °F 56.3 °F 29.6 in Calm   1 mph 71% 0 in 0 W/m2
20:38 65.8 °F 56.1 °F 29.6 in East 0.9 mph 1 mph 71% 0 in 0 W/m2
20:43 65.5 °F 56.3 °F 29.6 in Calm     72% 0 in 0 W/m2
20:48 65.1 °F 56.3 °F 29.6 in Calm     73% 0 in 0 W/m2
20:53 64.9 °F 56.5 °F 29.6 in Calm     74% 0 in 0 W/m2
20:58 64.6 °F 56.1 °F 29.6 in ESE 0.9 mph 2 mph 74% 0 in 0 W/m2
21:03 64.2 °F 56.1 °F 29.6 in Calm   1 mph 75% 0 in 0 W/m2
21:08 64 °F 56.3 °F 29.6 in Calm   2 mph 76% 0 in 0 W/m2
21:13 63.9 °F 56.1 °F 29.6 in ESE 0.9 mph 1 mph 76% 0 in 0 W/m2
21:18 63.9 °F 56.1 °F 29.6 in ENE 0.9 mph 2 mph 76% 0 in 0 W/m2
21:23 64.2 °F 56.1 °F 29.6 in NE 0.9 mph 2 mph 75% 0 in 0 W/m2
21:28 64.6 °F 56.5 °F 29.6 in Calm   2 mph 75% 0 in 0 W/m2
21:33 64.9 °F 56.5 °F 29.6 in ENE 2.9 mph 5 mph 74% 0 in 0 W/m2
21:38 65.7 °F 56.8 °F 29.6 in NE 2.9 mph 3 mph 73% 0 in 0 W/m2
21:43 65.8 °F 57 °F 29.6 in NNE 0.9 mph 4 mph 73% 0 in 0 W/m2
21:48 66 °F 56.7 °F 29.6 in NE 2 mph 4 mph 72% 0 in 0 W/m2
21:53 66.4 °F 57 °F 29.6 in NE 2 mph 4 mph 72% 0 in 0 W/m2
21:58 66.6 °F 56.8 °F 29.6 in NNE 0.9 mph 2 mph 71% 0 in 0 W/m2
22:03 66.6 °F 56.8 °F 29.6 in East 2.9 mph 7 mph 71% 0 in 0 W/m2
22:08 66.6 °F 56.8 °F 29.6 in NE 2 mph 3 mph 71% 0 in 0 W/m2
22:13 66.6 °F 56.8 °F 29.6 in ESE 2 mph 6 mph 71% 0 in 0 W/m2
22:18 66.6 °F 56.8 °F 29.6 in NE 2.9 mph 3 mph 71% 0 in 0 W/m2
22:23 66.6 °F 56.8 °F 29.6 in ENE 4 mph 8 mph 71% 0 in 0 W/m2
22:28 66.4 °F 56.7 °F 29.6 in NNE 2.9 mph 6 mph 71% 0 in 0 W/m2
22:33 66.2 °F 56.5 °F 29.6 in East 4.9 mph 8 mph 71% 0 in 0 W/m2
22:38 66 °F 56.7 °F 29.6 in ENE 0.9 mph 3 mph 72% 0 in 0 W/m2
22:43 65.8 °F 57 °F 29.6 in ENE 4 mph 4 mph 73% 0 in 0 W/m2
22:48 65.7 °F 56.8 °F 29.6 in ENE 4.9 mph 5 mph 73% 0 in 0 W/m2
22:53 65.5 °F 56.7 °F 29.6 in Calm   5 mph 73% 0 in 0 W/m2
22:58 65.5 °F 56.7 °F 29.6 in East 6 mph 6 mph 73% 0 in 0 W/m2
23:03 65.7 °F 56.8 °F 29.6 in ENE 2.9 mph 4 mph 73% 0 in 0 W/m2
23:08 65.7 °F 56.8 °F 29.6 in NE 2.9 mph 8 mph 73% 0 in 0 W/m2
23:13 65.8 °F 56.5 °F 29.6 in East 2 mph 6 mph 72% 0 in 0 W/m2
23:18 66 °F 56.7 °F 29.6 in East 4.9 mph 8 mph 72% 0 in 0 W/m2
23:23 66.2 °F 56.8 °F 29.6 in NNE 2.9 mph 5 mph 72% 0 in 0 W/m2
23:28 66.4 °F 56.7 °F 29.6 in ENE 4 mph 9 mph 71% 0 in 0 W/m2
23:33 66.6 °F 56.8 °F 29.6 in North 2 mph 3 mph 71% 0 in 0 W/m2
23:38 66.7 °F 57.4 °F 29.6 in East 2 mph 5 mph 72% 0 in 0 W/m2
23:43 66.7 °F 57.4 °F 29.6 in NW 4.9 mph 6 mph 72% 0 in 0 W/m2
23:48 66.6 °F 58.5 °F 29.6 in WNW 4.9 mph 13 mph 75% 0.04 in 0 W/m2
23:53 65.3 °F 57.9 °F 29.6 in NNW 0.9 mph 4 mph 77% 0.06 in 0 W/m2
23:58 64.6 °F 58.3 °F 29.6 in NE 0.9 mph 13 mph 80% 0.06 in 0 W/m2
Juneau County Weather
Compliments of Weather Underground - 4 mb